• Join FlightAware (Why Join?)
  • Login
  • US Flag 
05:29AM EDT


 

Airport Tracker/Info


-or-


 

Live Flight TrackerFlight Track Log ✈ DAL832 ✈ 19-Aug-2014 ✈ KDCA - KSLC

Flight Track Log - Related Links

Times and Time Zones

All times are in EDT time to prevent confusion due to time zone crossing. See the DAL832 flight status page for this flight to view local times or setup timezone preferences in your user account.

Time Position Orientation Groundspeed Altitude Reporting Facility
EDT Latitude Longitude Course Direction KTS MPH feet Rate Location/Type
05:12PM 38.8167 -77.0333 274° West 182 209 1,500  Level Potomac TRACON
05:14PM 38.7500 -77.0333 180° South 259 298 3,500 1,680 Climbing Potomac TRACON
05:15PM 38.7167 -77.1167 243° Southwest 283 326 5,000 2,100 Climbing Potomac TRACON
05:16PM 38.7000 -77.2167 258° West 279 321 7,700 2,700 Climbing Potomac TRACON
05:17PM 38.7167 -77.3000 284° West 288 331 10,500 1,680 Climbing Potomac TRACON
05:18PM 38.9435 -77.9576 274° West  Level FlightAware Approximate
05:18PM 38.7667 -77.4167 299° West 354 407 11,100  Level Potomac TRACON
05:19PM 38.8167 -77.5167 303° West 372 428 14,500 2,820 Climbing Potomac TRACON
05:20PM 38.8500 -77.6333 290° West 325 374 16,800 960 Climbing Potomac TRACON
05:21PM 38.9592 -77.6875 339° North 318 366 17,000 60 Climbing Washington Center
05:22PM 38.9708 -77.7942 278° West 308 354 17,000  Level Washington Center
05:23PM 38.9681 -77.9000 268° West 310 357 17,100 60 Climbing Washington Center
05:24PM 38.9653 -78.0094 268° West 312 359 17,200 1,140 Climbing Washington Center
05:25PM 38.9628 -78.1453 269° West 313 360 19,400 1,320 Climbing Washington Center
05:26PM 38.9619 -78.2683 270° West 341 392 20,000 720 Climbing Washington Center
05:27PM 38.9669 -78.4097 273° West 393 452 21,000 1,380 Climbing Washington Center
05:28PM 38.9711 -78.5544 272° West 405 466 22,900 1,020 Climbing Washington Center
05:29PM 38.9756 -78.6989 272° West 405 466 23,200 1,020 Climbing Washington Center
05:30PM 38.9789 -78.8461 272° West 407 468 25,100 1,800 Climbing Washington Center
05:31PM 38.9836 -79.0231 272° West 410 472 27,000 900 Climbing Washington Center
05:32PM 38.9872 -79.1733 272° West 417 480 27,000 240 Level Washington Center
05:33PM 38.9906 -79.3253 272° West 420 483 27,600 480 Climbing Washington Center
05:34PM 38.9900 -79.4781 270° West 424 488 28,000 660 Climbing Washington Center
05:35PM 38.9486 -79.6422 252° West 428 493 29,000 960 Climbing Washington Center
05:37PM 38.9097 -79.7864 251° West 429 494 30,100 1,200 Climbing Washington Center
05:38PM 38.8694 -79.9328 251° West 431 496 31,600 1,020 Climbing Washington Center
05:38PM 38.8375 -80.0494 251° West 431 496 32,000 180 Climbing Indianapolis Center
05:39PM 38.8161 -80.2275 261° West 429 494 32,000  Level Indianapolis Center
05:40PM 38.8122 -80.3800 268° West 429 494 32,000  Level Indianapolis Center
05:41PM 38.8083 -80.5331 268° West 428 493 32,000  Level Indianapolis Center
05:43PM 38.8033 -80.6867 268° West 429 494 32,000  Level Indianapolis Center
05:44PM 38.7983 -80.8414 268° West 431 496 32,100 480 Climbing Indianapolis Center
05:45PM 38.8122 -80.9925 277° West 431 496 33,000 420 Climbing Indianapolis Center
05:46PM 38.8369 -81.1728 280° West 428 493 33,000  Level Indianapolis Center
05:47PM 38.8578 -81.3233 280° West 429 494 33,000  Level Indianapolis Center
05:48PM 38.8781 -81.4708 280° West 429 494 33,000  Level Indianapolis Center
05:49PM 38.8997 -81.6211 281° West 431 496 33,000 240 Level Indianapolis Center
05:50PM 38.9231 -81.8039 279° West 434 499 33,600 480 Climbing Indianapolis Center
05:51PM 38.9419 -81.9522 279° West 429 494 34,000 540 Climbing Indianapolis Center
05:52PM 38.9603 -82.0978 279° West 420 483 34,800 1,020 Climbing Indianapolis Center
05:53PM 38.9786 -82.2439 279° West 419 482 36,200 1,140 Climbing Indianapolis Center
05:54PM 38.9958 -82.3844 279° West 406 467 37,200 720 Climbing Indianapolis Center
05:55PM 39.0136 -82.5242 279° West 400 460 37,800 360 Climbing Indianapolis Center
05:56PM 39.0328 -82.6928 278° West 400 460 38,000 60 Climbing Indianapolis Center
05:57PM 39.0497 -82.8361 279° West 401 461 38,000  Level Indianapolis Center
05:58PM 39.0672 -82.9817 279° West 408 470 38,000  Level Indianapolis Center
05:59PM 39.0839 -83.1281 278° West 410 472 38,000  Level Indianapolis Center
06:00PM 39.1044 -83.2947 279° West 413 475 38,000  Level Indianapolis Center
06:01PM 39.1206 -83.4456 278° West 419 482 38,000  Level Indianapolis Center
06:02PM 39.1378 -83.5950 278° West 419 482 38,000  Level Indianapolis Center
06:03PM 39.1539 -83.7433 278° West 419 482 38,000  Level Indianapolis Center
06:04PM 39.1706 -83.8922 278° West 419 482 38,000  Level Indianapolis Center
06:05PM 39.1867 -84.0400 278° West 419 482 38,000  Level Indianapolis Center
06:06PM 39.2056 -84.2150 278° West 415 478 38,000  Level Indianapolis Center
06:07PM 39.2206 -84.3619 278° West 415 478 38,000  Level Indianapolis Center
06:08PM 39.2375 -84.5083 279° West 414 476 38,000  Level Indianapolis Center
06:09PM 39.2522 -84.6542 277° West 413 475 38,000  Level Indianapolis Center
06:10PM 39.2667 -84.7989 277° West 412 474 38,000  Level Indianapolis Center
06:12PM 39.2842 -84.9617 278° West 410 472 38,000  Level Indianapolis Center
06:13PM 39.2978 -85.1064 277° West 408 470 38,000  Level Indianapolis Center
06:14PM 39.3108 -85.2497 277° West 408 470 38,000  Level Indianapolis Center
06:15PM 39.3250 -85.3947 277° West 407 468 38,000  Level Indianapolis Center
06:16PM 39.3397 -85.5411 277° West 408 470 38,000  Level Indianapolis Center
06:17PM 39.3564 -85.7186 277° West 410 472 38,000  Level Indianapolis Center
06:18PM 39.3700 -85.8675 277° West 413 475 38,000  Level Indianapolis Center
06:19PM 39.3833 -86.0178 277° West 417 480 38,000  Level Indianapolis Center
06:20PM 39.3964 -86.1661 277° West 417 480 38,000  Level Indianapolis Center
06:21PM 39.4100 -86.3169 277° West 417 480 38,000  Level Indianapolis Center
06:22PM 39.4222 -86.4667 276° West 417 480 38,000  Level Indianapolis Center
06:23PM 39.4356 -86.6156 277° West 417 480 38,000  Level Indianapolis Center
06:24PM 39.4514 -86.7917 277° West 414 476 38,000  Level Indianapolis Center
06:25PM 39.4631 -86.9381 276° West 413 475 38,000  Level Indianapolis Center
06:26PM 39.4758 -87.0844 276° West 412 474 38,000  Level Indianapolis Center
06:27PM 39.4881 -87.2322 276° West 411 473 38,000  Level Indianapolis Center
06:29PM 39.5333 -87.5231 282° West 413 475 38,000  Level Indianapolis Center
06:30PM 39.5581 -87.6981 280° West 413 475 38,000  Level Indianapolis Center
06:31PM 39.5803 -87.8431 281° West 413 475 38,000  Level Indianapolis Center
06:32PM 39.6019 -87.9900 281° West 413 475 38,000  Level Indianapolis Center
06:33PM 39.6231 -88.1350 281° West 413 475 38,000  Level Kansas City Center
06:34PM 39.6444 -88.2831 281° West 413 475 38,000  Level Kansas City Center
06:35PM 39.6692 -88.4525 281° West 416 479 38,000  Level Kansas City Center
06:36PM 39.6914 -88.6019 281° West 419 482 38,000  Level Kansas City Center
06:37PM 39.7125 -88.7528 280° West 422 486 38,000  Level Kansas City Center
06:38PM 39.7336 -88.9025 280° West 422 486 38,000  Level Kansas City Center
06:40PM 39.7544 -89.0544 280° West 422 486 38,000  Level Kansas City Center
06:41PM 39.7803 -89.2367 281° West 424 488 38,000  Level Kansas City Center
06:42PM 39.8003 -89.3900 280° West 425 489 38,000  Level Kansas City Center
06:43PM 39.8214 -89.5417 280° West 425 489 38,000  Level Kansas City Center
06:44PM 39.8411 -89.6944 280° West 425 489 38,000  Level Kansas City Center
06:45PM 39.8583 -89.8475 278° West 426 490 38,000  Level Kansas City Center
06:46PM 39.8756 -89.9989 278° West 425 489 38,000  Level Kansas City Center
06:47PM 39.8950 -90.1803 278° West 425 489 38,000  Level Kansas City Center
06:48PM 39.9125 -90.3306 279° West 424 488 38,000  Level Kansas City Center
06:49PM 39.9283 -90.4803 278° West 422 486 38,000  Level Kansas City Center
06:50PM 39.9442 -90.6289 278° West 418 481 38,000  Level Kansas City Center
06:51PM 39.9603 -90.7789 278° West 418 481 38,000  Level Kansas City Center
06:52PM 39.9761 -90.9289 278° West 418 481 38,000  Level Kansas City Center
06:53PM 39.9892 -91.1006 276° West 413 475 38,000  Level Kansas City Center
06:54PM 39.9969 -91.2508 274° West 414 476 38,000  Level Kansas City Center
06:55PM 40.0072 -91.4017 275° West 418 481 38,000  Level Kansas City Center
06:56PM 40.0178 -91.5519 275° West 418 481 38,000  Level Kansas City Center
06:57PM 40.0264 -91.7028 274° West 418 481 38,000  Level Kansas City Center
06:58PM 40.0364 -91.8831 274° West 419 482 38,000  Level Kansas City Center
06:59PM 40.0447 -92.0339 274° West 419 482 38,000  Level Kansas City Center
07:00PM 40.0525 -92.1850 274° West 419 482 38,000  Level Kansas City Center
07:01PM 40.0600 -92.3353 274° West 419 482 38,000  Level Kansas City Center
07:02PM 40.0692 -92.5056 274° West 415 478 38,000  Level Kansas City Center
07:03PM 40.0781 -92.6547 275° West 413 475 38,000  Level Kansas City Center
07:04PM 40.0853 -92.8014 274° West 411 473 38,000  Level Kansas City Center
07:05PM 40.0908 -92.9486 273° West 409 471 38,000  Level Kansas City Center
07:06PM 40.0969 -93.1064 273° West 407 468 38,000  Level Kansas City Center
07:07PM 40.1050 -93.2539 274° West 407 468 38,000  Level Kansas City Center
07:09PM 40.1117 -93.3994 273° West 407 468 38,000  Level Kansas City Center
07:10PM 40.1203 -93.5739 274° West 406 467 38,000  Level Kansas City Center
07:11PM 40.1275 -93.7192 274° West 404 465 38,000  Level Kansas City Center
07:12PM 40.1325 -93.8617 273° West 402 463 38,000  Level Kansas City Center
07:13PM 40.1389 -94.0064 273° West 402 463 38,000  Level Kansas City Center
07:14PM 40.1425 -94.1675 272° West 395 455 38,000  Level Kansas City Center
07:15PM 40.1475 -94.3114 273° West 395 455 38,000  Level Kansas City Center
07:16PM 40.1533 -94.4561 273° West 397 457 38,000  Level Kansas City Center
07:17PM 40.1581 -94.6000 273° West 398 458 38,000  Level Kansas City Center
07:18PM 40.1631 -94.7453 273° West 401 461 38,000  Level Kansas City Center
07:19PM 40.1689 -94.9175 273° West 401 461 38,000  Level Kansas City Center
07:20PM 40.1728 -95.0611 272° West 400 460 38,000  Level Kansas City Center
07:21PM 40.1769 -95.2056 272° West 400 460 38,000  Level Kansas City Center
07:22PM 40.1817 -95.3508 272° West 402 463 38,000  Level Kansas City Center
07:23PM 40.1853 -95.4953 272° West 400 460 38,000  Level Kansas City Center
07:24PM 40.1886 -95.6689 271° West 401 461 38,000  Level Kansas City Center
07:25PM 40.1922 -95.8367 272° West 402 463 38,000  Level Minneapolis Center
07:26PM 40.1964 -96.0158 272° West 406 467 38,000  Level Minneapolis Center
07:27PM 40.1989 -96.1669 271° West 407 468 38,000  Level Minneapolis Center
07:28PM 40.2019 -96.3167 272° West 408 470 38,000  Level Minneapolis Center
07:29PM 40.2039 -96.4639 271° West 408 470 38,000  Level Minneapolis Center
07:30PM 40.2069 -96.6144 272° West 408 470 38,000  Level Minneapolis Center
07:32PM 40.2092 -96.7653 271° West 409 471 38,000  Level Minneapolis Center
07:33PM 40.2114 -96.9169 271° West 410 472 38,000  Level Minneapolis Center
07:34PM 40.2142 -97.0978 271° West 411 473 38,000  Level Minneapolis Center
07:35PM 40.2158 -97.2489 271° West 411 473 38,000  Level Minneapolis Center
07:36PM 40.2169 -97.3997 271° West 411 473 38,000  Level Minneapolis Center
07:37PM 40.2194 -97.5497 271° West 411 473 38,000  Level Minneapolis Center
07:38PM 40.2214 -97.6997 271° West 411 473 38,000  Level Minneapolis Center
07:39PM 40.2206 -97.8500 270° West 411 473 38,000  Level Minneapolis Center
07:40PM 40.2219 -98.0322 271° West 411 473 38,000  Level Minneapolis Center
07:41PM 40.2222 -98.1836 270° West 415 478 38,000  Level Minneapolis Center
07:42PM 40.2214 -98.3353 270° West 415 478 38,000  Level Minneapolis Center
07:43PM 40.2228 -98.4881 271° West 416 479 38,000  Level Minneapolis Center
07:44PM 40.2219 -98.6403 270° West 416 479 38,000  Level Minneapolis Center
07:45PM 40.2217 -98.7933 270° West 416 479 38,000  Level Minneapolis Center
07:46PM 40.2217 -98.9767 270° West 417 480 38,000  Level Minneapolis Center
07:47PM 40.2206 -99.1306 270° West 417 480 38,000  Level Minneapolis Center
07:48PM 40.2208 -99.2236 270° West 420 483 38,000  Level Denver Center
07:49PM 40.2189 -99.3781 269° West 421 484 38,000  Level Denver Center
07:50PM 40.2178 -99.5317 270° West 421 484 38,000  Level Denver Center
07:51PM 40.2169 -99.6847 270° West 421 484 38,000  Level Denver Center
07:52PM 40.2147 -99.8375 269° West 422 486 38,000  Level Denver Center
07:53PM 40.2122 -99.9933 269° West 419 482 38,000  Level Denver Center
07:54PM 40.2114 -100.1636 270° West 419 482 38,000  Level Denver Center
07:55PM 40.2075 -100.3075 268° West 417 480 38,000  Level Denver Center
07:56PM 40.2056 -100.4747 269° West 414 476 38,000  Level Denver Center
07:57PM 40.2031 -100.6183 269° West 413 475 38,000  Level Denver Center
07:58PM 40.2053 -100.7853 271° West 412 474 38,000  Level Denver Center
07:59PM 40.2078 -100.9283 271° West 412 474 38,000  Level Denver Center
08:00PM 40.2089 -101.0703 271° West 410 472 38,000  Level Denver Center
08:01PM 40.2094 -101.2367 270° West 409 471 38,000  Level Denver Center
08:02PM 40.2117 -101.3786 271° West 409 471 38,000  Level Denver Center
08:03PM 40.2117 -101.5450 270° West 409 471 38,000  Level Denver Center
08:04PM 40.2128 -101.6864 271° West 408 470 38,000 420 Level Denver Center
08:05PM 40.2128 -101.8489 270° West 403 464 38,900 660 Climbing Denver Center
08:06PM 40.2133 -101.9875 270° West 399 459 39,400 480 Climbing Denver Center
08:07PM 40.2131 -102.1486 270° West 399 459 40,000 240 Climbing Denver Center
08:08PM 40.2128 -102.2850 270° West 394 453 40,000  Level Denver Center
08:09PM 40.2217 -102.4414 274° West 389 448 40,000  Level Denver Center
08:10PM 40.2756 -102.5564 302° West 383 441 40,000  Level Denver Center
08:11PM 40.3483 -102.6833 307° West 387 445 40,000  Level Denver Center
08:12PM 40.4117 -102.7814 310° West 392 451 40,000  Level Denver Center
08:14PM 40.4719 -102.8994 304° West 397 457 40,000  Level Denver Center
08:15PM 40.4797 -103.0672 274° West 389 448 40,000  Level Denver Center
08:16PM 40.4925 -103.2103 277° West 392 451 40,000  Level Denver Center
08:17PM 40.4697 -103.3461 258° West 389 448 40,000  Level Denver Center
08:18PM 40.4506 -103.4839 260° West 385 443 40,000  Level Denver Center
08:19PM 40.4397 -103.6272 264° West 391 450 40,000 -420 Level Denver Center
08:20PM 40.4311 -103.7722 266° West 398 458 39,200 -960 Descending Denver Center
08:21PM 40.4186 -103.9467 265° West 400 460 38,000 -600 Descending Denver Center
08:22PM 40.4078 -104.0894 264° West 400 460 38,000  Level Denver Center
08:23PM 40.3978 -104.2328 265° West 400 460 38,000  Level Denver Center
08:24PM 40.3869 -104.3764 264° West 400 460 38,000  Level Denver Center
08:25PM 40.3761 -104.5222 264° West 400 460 38,000  Level Denver Center
08:26PM 40.3633 -104.6967 265° West 400 460 38,000  Level Denver Center
08:27PM 40.3519 -104.8417 264° West 401 461 38,000  Level Denver Center
08:28PM 40.3411 -104.9847 264° West 401 461 38,000  Level Denver Center
08:29PM 40.3289 -105.1278 264° West 400 460 38,000  Level Denver Center
08:30PM 40.3169 -105.2683 264° West 397 457 38,000  Level Denver Center
08:31PM 40.3036 -105.4386 264° West 396 456 38,000  Level Denver Center
08:32PM 40.2911 -105.5817 264° West 396 456 38,000  Level Denver Center
08:33PM 40.2786 -105.7247 264° West 396 456 38,000  Level Denver Center
08:34PM 40.2664 -105.8669 264° West 396 456 38,000  Level Denver Center
08:35PM 40.2539 -106.0092 263° West 395 455 38,000  Level Denver Center
08:36PM 40.2389 -106.1753 263° West 395 455 38,000  Level Denver Center
08:37PM 40.2133 -106.3183 257° West 395 455 38,000  Level Denver Center
08:38PM 40.1958 -106.4581 261° West 394 453 38,000  Level Denver Center
08:39PM 40.1861 -106.5964 265° West 394 453 38,000  Level Denver Center
08:40PM 40.1781 -106.7389 266° West 394 453 38,000  Level Denver Center
08:41PM 40.1797 -106.9117 271° West 396 456 38,000  Level Denver Center
08:42PM 40.1794 -107.0539 270° West 395 455 38,000  Level Denver Center
08:44PM 40.1800 -107.1964 270° West 395 455 38,000  Level Denver Center
08:45PM 40.1803 -107.3397 270° West 395 455 38,000  Level Denver Center
08:46PM 40.1808 -107.4817 270° West 393 452 38,000  Level Denver Center
08:47PM 40.1800 -107.6217 270° West 392 451 38,000  Level Denver Center
08:48PM 40.1506 -107.7844 257° West 392 451 38,000  Level Denver Center
08:49PM 40.0733 -107.8850 225° Southwest 392 451 38,000 -60 Level Denver Center
08:50PM 40.0294 -108.0139 246° West 393 452 37,900 -540 Descending Denver Center
08:51PM 40.0008 -108.1481 254° West 389 448 36,900 -1,320 Descending Denver Center
08:52PM 39.9703 -108.2836 254° West 389 448 35,200 -1,560 Descending Denver Center
08:53PM 39.9394 -108.4244 254° West 401 461 33,700 -1,680 Descending Denver Center
08:55PM 39.9322 -108.7656 269° West 438 504 30,100 -1,200 Descending Salt Lake Center
08:56PM 39.9347 -108.9317 271° West 461 531 30,000 -60 Descending Salt Lake Center
08:57PM 39.9408 -109.0933 273° West 459 528 30,000  Level Salt Lake Center
08:58PM 39.9717 -109.2511 284° West 454 522 30,000  Level Salt Lake Center
08:59PM 40.0108 -109.4433 285° West 455 524 30,000  Level Salt Lake Center
09:00PM 40.0433 -109.6033 285° West 457 526 30,000  Level Salt Lake Center
09:01PM 40.0758 -109.7658 285° West 463 533 30,000  Level Salt Lake Center
09:03PM 40.1397 -110.0817 285° West 448 516 30,000  Level Denver Center
09:04PM 40.1483 -110.2400 274° West 440 506 30,000  Level Denver Center
09:05PM 40.1461 -110.4311 269° West 442 509 30,000  Level Salt Lake Center
09:06PM 40.1447 -110.5883 269° West 437 503 30,000  Level Salt Lake Center
09:07PM 40.1428 -110.7469 269° West 437 503 30,000 -360 Level Salt Lake Center
09:08PM 40.1408 -110.9064 269° West 437 503 29,300 -1,440 Descending Salt Lake Center
09:09PM 40.1372 -111.0831 269° West 437 503 27,100 -2,580 Descending Salt Lake Center
09:10PM 40.1353 -111.2269 269° West 405 466 24,100 -2,820 Descending Salt Lake Center
09:11PM 40.1336 -111.3689 269° West 391 450 21,400 -2,400 Descending Salt Lake Center
09:12PM 40.1292 -111.4889 267° West 382 440 19,700 -1,980 Descending Salt Lake Center
09:12PM 40.1308 -111.5067 277° West 381 438 19,400 -1,020 Descending Salt Lake Center
09:13PM 40.1511 -111.6192 283° West 373 429 18,700 -780 Descending Salt Lake Center
09:13PM 40.1614 -111.6342 312° West 372 428 18,600 -600 Descending Salt Lake Center
09:14PM 40.1992 -111.7517 293° West 374 430 18,100 -600 Descending Salt Lake Center
09:14PM 40.2050 -111.7603 312° West 382 440 18,000 -1,320 Descending Salt Lake Center
09:15PM 40.2647 -111.8531 310° West 376 433 16,800 -1,260 Descending Salt Lake Center
09:15PM 40.2772 -111.8544 355° North 371 427 16,700 -1,380 Descending Salt Lake Center
09:16PM 40.3556 -111.9094 332° Northwest 360 414 15,400 -1,500 Descending Salt Lake Center
09:17PM 40.3686 -111.9111 354° North 365 420 15,200 -1,500 Descending Salt Lake Center
09:17PM 40.4683 -111.9783 333° Northwest 361 415 13,600 -1,560 Descending Salt Lake Center
09:18PM 40.5494 -112.0297 334° Northwest 353 406 12,400 -1,260 Descending Salt Lake Center
09:19PM 40.5650 -112.0344 347° North 350 403 12,200 -1,320 Descending Salt Lake Center
09:19PM 40.6367 -112.0794 335° Northwest 337 388 11,100 -1,200 Descending Salt Lake Center
09:20PM 40.6533 -112.0803 358° North 343 395 11,000 -120 Descending Salt Lake Center
09:20PM 40.7233 -112.0925 352° North 335 386 11,000 60 Level Salt Lake Center
09:21PM 40.7453 -112.0908 North 324 373 11,100  Climbing Salt Lake Center
09:21PM 40.8022 -112.0997 353° North 264 304 11,000 -300 Descending Salt Lake Center
09:22PM 40.8206 -112.0994 North 263 303 10,800 -1,140 Descending Salt Lake Center
09:22PM 40.8633 -112.1047 355° North 242 278 10,000 -1,200 Descending Salt Lake Center
09:23PM 40.8903 -112.1078 355° North 251 289 9,600 -1,440 Descending Salt Lake Center
09:23PM 40.9269 -112.0886 22° Northeast 246 283 8,600 -1,800 Descending Salt Lake Center
09:24PM 40.9317 -112.0550 79° East 248 285 7,800 -2,220 Descending Salt Lake Center
09:24PM 40.9033 -112.0117 131° Southeast 230 265 6,400 -1,680 Descending Salt Lake Center
09:25PM 40.8869 -112.0086 172° South 220 253 6,100 -1,140 Descending Salt Lake Center
09:25PM 40.8614 -112.0061 176° South 170 196 5,400 -1,260 Descending Salt Lake Center
09:26PM 40.8325 -112.0022 174° South 162 186 4,800 -900 Descending Salt Lake Center
09:26PM 40.8172 -112.0011 177° South 133 153 4,500 -540 Descending Salt Lake Center
09:27PM 40.7922 -111.9967 172° South 142 163 4,300 -360 Descending Salt Lake Center